30°C Temp
23°C Dewpoint
% Humidity
Temperature
16 KM/H
10 MPH
9 KTS
80°
Due East

Wind Speed
Partly Cloudy
Conditions
Pressure 1009.92 (hPa) - 29.82 (in)
Visibility 6.2 (mi) - 10.0 (km)

Current Conditions
YBBN
Location 15(km)
Metar :YBBN 160500Z 08009KT 9999 FEW023 30/23 Q1010
Sun 16th February 15:00 pm

Airport
  Metar Aviation API Data Provided by https://www.checkwx.com/ PHP scripts by weather34.com ©2020